Earlham, Iowa
Current Conditions -  °F | °C
As of 7:35 AM on Thursday 30 Oct 2014 (Local Time) from KPRO Reporting Station
Clear Clear  
Wind Chill: 36°   Ceiling: Unl
Heat Index: 42°   Visibility: 10mi
Dew Point: 37°   Wind: 9mph
Humidity: 83%   Direction: 170°S
Pressure: 29.99"   Gusts: NA
Location:  41.49°N, 94.12°W
Report Text: KPRO 301235Z AUTO 17008KT 10SM CLR 05/03 A2999 RMK AO2 T00530027
Loading
Personal Weather Stations






























Interactive Weather Map
Tropical Storm Tracking
New forecast layout! Learn more

10-Day Weather Forecast

Advertisements
Track Severe Weather on mobile